Weather at Matsuyama Airport

Public forecast

Using degrees Celsius for public forecast. Weather courtesy of forecast.io.

Current aviation weather report (METAR) for Matsuyama Airport

Retrieved 2020/12/01 04:00 UTC (59 minutes ago):

RJOM 010400Z 02013KT 9999 FEW030 14/03 Q1028

Aviation forecast (TAF) for Matsuyama Airport

Retrieved 2020-12-01 00:30 UTC (4 hours ago):

TAF RJOM 302306Z 0100/0206 12006KT 9999 FEW030 BECMG 0101/0103 35012KT BECMG 0107/0109 12006KT BECMG 0200/0203 35010KT